Union City, New Jersey
Current Conditions -  °F | °C
As of 6:51 PM on Sunday 23 Nov 2014 (Local Time) from KNYC Reporting Station
Clear Clear  
Wind Chill: 52°   Ceiling: Unl
Heat Index: 52°   Visibility: 10mi
Dew Point: 31°   Wind: 0mph
Humidity: 45%   Direction: NA
Pressure: 30.15"   Gusts: NA
Location:  40.77°N, 74.02°W
Report Text: KNYC 232351Z AUTO 00000KT 10SM CLR 11/M01 A3015 RMK AO2 SLP200 T01111006 10139 20106 58001 $
Loading
Personal Weather Stations






























Interactive Weather Map New forecast layout! Learn more

10-Day Weather Forecast

Advertisements
Track Severe Weather on mobile